Time;durP1;ratioP1;P1;durP2;ratioP2;P2;SDS_P1;SDS_P2;PMS_P1;PMS_P2;Temp;Humidity;BMP_temperature;BMP_pressure;BME280_temperature;BME280_humidity;BME280_pressure;Samples;Min_cycle;Max_cycle;Signal;HPM_P1;HPM_P2
2021/08/01 00:02:21;;;;;;;9.60;6.95;;;;;;;22.83;69.58;99597.94;5054826;28;20447;-76
2021/08/01 00:04:49;;;;;;;9.30;6.38;;;;;;;22.83;69.35;99592.53;5054925;28;20127;-77
2021/08/01 00:07:17;;;;;;;11.35;6.88;;;;;;;22.76;69.02;99586.97;5054921;28;20049;-75
2021/08/01 00:09:45;;;;;;;11.32;7.63;;;;;;;22.64;69.79;99593.91;5054495;28;20041;-76
2021/08/01 00:12:14;;;;;;;10.02;6.88;;;;;;;22.50;70.57;99586.59;5054538;28;20052;-76
2021/08/01 00:14:43;;;;;;;10.48;6.75;;;;;;;22.42;70.89;99583.94;5054621;28;20045;-77
2021/08/01 00:17:12;;;;;;;11.77;6.63;;;;;;;22.32;71.33;99577.94;5054505;28;20045;-76
2021/08/01 00:19:40;;;;;;;8.88;6.25;;;;;;;22.28;71.78;99581.00;5054140;28;20091;-76
2021/08/01 00:22:08;;;;;;;11.70;6.45;;;;;;;22.19;71.95;99573.94;5054671;28;20053;-77
2021/08/01 00:24:36;;;;;;;9.13;6.57;;;;;;;22.13;72.85;99569.28;5054435;28;20051;-78
2021/08/01 00:27:05;;;;;;;10.57;6.82;;;;;;;22.21;72.68;99574.63;5053214;28;20132;-77
2021/08/01 00:29:33;;;;;;;10.60;6.50;;;;;;;22.14;73.28;99570.13;5054160;28;20393;-76
2021/08/01 00:32:04;;;;;;;9.73;6.80;;;;;;;22.16;73.20;99574.31;5054308;28;20045;-77
2021/08/01 00:34:32;;;;;;;9.73;6.55;;;;;;;22.12;73.51;99583.88;5053118;28;20107;-77
2021/08/01 00:37:00;;;;;;;9.70;6.57;;;;;;;22.11;73.60;99582.19;5054740;28;20048;-79
2021/08/01 00:39:29;;;;;;;11.90;6.72;;;;;;;22.10;73.51;99583.22;5054041;28;20439;-77
2021/08/01 00:41:58;;;;;;;12.25;7.07;;;;;;;22.20;71.91;99591.97;5054328;28;20071;-77
2021/08/01 00:44:27;;;;;;;10.18;6.68;;;;;;;22.25;71.96;99589.53;5053567;28;20044;-81
2021/08/01 00:46:55;;;;;;;11.80;6.63;;;;;;;22.27;72.07;99590.19;5053939;28;20128;-74
2021/08/01 00:49:25;;;;;;;9.23;6.25;;;;;;;22.51;71.00;99583.69;5054245;28;20476;-77
2021/08/01 00:51:55;;;;;;;10.95;7.20;;;;;;;22.42;71.57;99583.94;5052870;28;20064;-77
2021/08/01 00:54:24;;;;;;;10.23;6.97;;;;;;;22.34;72.01;99581.31;5053939;28;20045;-76
2021/08/01 00:56:52;;;;;;;11.25;6.85;;;;;;;22.26;72.05;99580.34;5053680;28;20127;-75
2021/08/01 00:59:21;;;;;;;10.25;7.10;;;;;;;22.27;72.14;99576.59;5053590;28;20377;-74
2021/08/01 01:01:58;;;;;;;10.57;6.90;;;;;;;22.20;72.40;99569.41;5053423;28;20454;-74
2021/08/01 01:04:36;;;;;;;10.80;6.72;;;;;;;22.27;72.30;99560.28;5053472;28;20400;-80
2021/08/01 01:07:11;;;;;;;10.10;6.65;;;;;;;22.22;72.09;99564.63;5053818;28;20144;-73
2021/08/01 01:09:46;;;;;;;9.07;6.70;;;;;;;22.24;72.13;99592.44;5053337;28;20037;-73
2021/08/01 01:12:19;;;;;;;9.32;6.38;;;;;;;22.23;72.63;99623.34;5053587;28;20044;-74
2021/08/01 01:14:52;;;;;;;12.45;6.75;;;;;;;22.24;73.00;99652.19;5053071;28;20052;-74
2021/08/01 01:17:25;;;;;;;8.90;6.03;;;;;;;22.26;72.62;99670.00;5053472;28;20438;-74
2021/08/01 01:20:14;;;;;;;10.00;5.80;;;;;;;21.98;72.39;99666.94;5053279;28;20051;-74
2021/08/01 01:22:52;;;;;;;7.07;5.18;;;;;;;22.05;69.75;99691.50;5053183;28;20102;-74
2021/08/01 01:25:25;;;;;;;7.53;4.90;;;;;;;22.07;69.39;99686.75;5053149;28;20136;-73
2021/08/01 01:28:06;;;;;;;7.72;4.75;;;;;;;22.23;68.16;99704.84;5053271;28;20041;-73
2021/08/01 01:30:39;;;;;;;8.00;4.82;;;;;;;22.32;67.21;99716.50;5052786;28;20044;-73
2021/08/01 01:33:11;;;;;;;;;;;;;;;22.54;66.37;99723.78;5053628;28;20590;-73
2021/08/01 01:35:45;;;;;;;6.63;4.22;;;;;;;22.62;65.66;99729.16;5053036;28;20307;-74
2021/08/01 01:38:15;;;;;;;7.35;4.88;;;;;;;22.63;68.73;99739.00;5053301;28;20048;-74
2021/08/01 01:40:45;;;;;;;9.10;4.40;;;;;;;22.61;68.68;99740.22;5053093;28;20051;-75
2021/08/01 01:43:13;;;;;;;7.50;4.90;;;;;;;22.53;70.01;99701.19;5053127;28;20071;-74
2021/08/01 01:45:42;;;;;;;9.02;5.10;;;;;;;22.38;73.06;99718.47;5052534;28;20049;-75
2021/08/01 01:48:10;;;;;;;11.63;6.10;;;;;;;22.04;77.95;99730.56;5053025;28;20510;-70
2021/08/01 01:50:39;;;;;;;8.52;5.85;;;;;;;21.92;78.40;99697.53;5052624;28;20048;-71
2021/08/01 01:53:08;;;;;;;11.48;5.95;;;;;;;21.65;81.85;99696.13;5053272;28;20072;-76
2021/08/01 01:55:40;;;;;;;9.15;5.88;;;;;;;21.58;84.21;99692.44;5052461;28;20041;-76
2021/08/01 01:58:11;;;;;;;10.75;6.72;;;;;;;21.33;90.18;99697.13;5053145;28;20041;-74
2021/08/01 02:00:39;;;;;;;12.00;6.80;;;;;;;21.26;91.99;99696.13;5052510;28;20044;-75
2021/08/01 02:03:07;;;;;;;10.85;6.70;;;;;;;21.34;90.80;99696.09;5052920;28;20055;-74
2021/08/01 02:05:36;;;;;;;11.68;6.95;;;;;;;21.25;91.71;99688.97;5052351;28;20048;-74
2021/08/01 02:08:04;;;;;;;11.93;7.20;;;;;;;21.01;94.27;99679.03;5052679;28;20048;-75
2021/08/01 02:10:38;;;;;;;13.90;7.85;;;;;;;20.78;97.80;99676.22;5052452;28;20045;-75
2021/08/01 02:13:11;;;;;;;10.75;6.75;;;;;;;20.71;98.13;99679.78;5052816;28;20098;-75
2021/08/01 02:15:48;;;;;;;11.93;7.95;;;;;;;20.55;100.00;99659.78;5052481;28;20103;-77
2021/08/01 02:18:20;;;;;;;12.13;8.20;;;;;;;20.33;100.00;99637.94;5052819;28;20041;-78
2021/08/01 02:20:52;;;;;;;13.83;8.70;;;;;;;20.36;100.00;99626.75;5052597;28;20037;-77
2021/08/01 02:23:25;;;;;;;14.13;8.40;;;;;;;20.41;100.00;99625.25;5052736;28;20450;-74
2021/08/01 02:25:56;;;;;;;11.73;7.68;;;;;;;20.34;100.00;99607.13;5051770;28;20049;-74
2021/08/01 02:28:28;;;;;;;12.40;7.85;;;;;;;20.17;100.00;99593.63;5052394;28;20052;-74
2021/08/01 02:30:57;;;;;;;11.43;6.82;;;;;;;20.24;100.00;99588.34;5052230;28;20052;-74
2021/08/01 02:33:27;;;;;;;10.25;7.35;;;;;;;20.19;100.00;99593.44;5052362;28;20052;-74
2021/08/01 02:35:57;;;;;;;8.07;6.00;;;;;;;20.18;100.00;99578.22;5052138;28;20491;-74
2021/08/01 02:38:26;;;;;;;11.38;6.93;;;;;;;20.07;100.00;99583.94;5052464;28;20056;-74
2021/08/01 02:40:58;;;;;;;10.18;6.80;;;;;;;19.98;100.00;99575.00;5052087;28;20095;-75
2021/08/01 02:43:30;;;;;;;9.02;6.50;;;;;;;19.92;100.00;99571.09;5052333;28;20045;-74
2021/08/01 02:45:59;;;;;;;11.10;7.20;;;;;;;19.94;100.00;99573.63;5052401;28;20041;-75
2021/08/01 02:48:29;;;;;;;9.95;6.85;;;;;;;19.98;100.00;99575.84;5052377;28;20048;-74
2021/08/01 02:51:01;;;;;;;9.60;6.95;;;;;;;20.01;100.00;99583.63;5051931;28;20041;-74
2021/08/01 02:53:35;;;;;;;9.10;6.40;;;;;;;20.01;100.00;99572.81;5052244;28;20135;-75
2021/08/01 02:56:09;;;;;;;8.75;6.25;;;;;;;19.93;100.00;99555.72;5052677;28;20055;-76
2021/08/01 02:58:40;;;;;;;10.13;6.63;;;;;;;20.04;100.00;99557.22;5054242;28;20041;-77
2021/08/01 03:01:11;;;;;;;7.97;6.60;;;;;;;20.21;100.00;99554.34;5056114;28;20037;-73
2021/08/01 03:03:42;;;;;;;10.63;6.28;;;;;;;20.30;100.00;99547.06;5055597;28;20116;-74
2021/08/01 03:06:11;;;;;;;7.70;5.88;;;;;;;20.39;100.00;99551.44;5055798;28;20052;-74
2021/08/01 03:08:40;;;;;;;10.52;6.65;;;;;;;20.53;100.00;99547.19;5055512;28;20376;-74
2021/08/01 03:11:08;;;;;;;9.40;6.50;;;;;;;20.57;100.00;99540.44;5055887;28;20041;-74
2021/08/01 03:13:40;;;;;;;10.02;6.47;;;;;;;20.55;100.00;99534.31;5055422;28;20037;-75
2021/08/01 03:16:08;;;;;;;8.10;6.40;;;;;;;20.58;100.00;99529.41;5055507;28;20411;-75
2021/08/01 03:18:36;;;;;;;8.55;6.47;;;;;;;20.66;100.00;99525.00;5055421;28;20037;-76
2021/08/01 03:21:05;;;;;;;9.35;6.47;;;;;;;20.68;99.31;99533.78;5055623;28;20098;-75
2021/08/01 03:23:33;;;;;;;9.02;6.55;;;;;;;20.57;100.00;99553.97;5055571;28;20033;-75
2021/08/01 03:26:01;;;;;;;9.43;7.10;;;;;;;20.53;100.00;99550.75;5055526;28;20064;-75
2021/08/01 03:28:29;;;;;;;9.68;7.07;;;;;;;20.57;100.00;99549.41;5055648;28;20143;-77
2021/08/01 03:31:01;;;;;;;9.95;7.38;;;;;;;20.63;100.00;99547.00;5055182;28;20096;-77
2021/08/01 03:33:29;;;;;;;9.98;7.63;;;;;;;20.64;100.00;99549.53;5055374;28;20041;-77
2021/08/01 03:35:58;;;;;;;10.90;7.50;;;;;;;20.69;100.00;99555.28;5055160;28;20090;-77
2021/08/01 03:38:26;;;;;;;12.18;7.60;;;;;;;20.70;100.00;99564.28;5055478;28;20380;-76
2021/08/01 03:40:54;;;;;;;10.82;7.45;;;;;;;20.64;100.00;99573.06;5054759;28;20132;-77
2021/08/01 03:43:23;;;;;;;10.18;7.10;;;;;;;20.65;100.00;99572.06;5055204;28;20487;-77
2021/08/01 03:45:51;;;;;;;10.75;7.93;;;;;;;20.56;100.00;99561.28;5054988;28;20055;-77
2021/08/01 03:48:20;;;;;;;14.65;7.30;;;;;;;20.69;100.00;99546.31;5054019;28;20049;-77
2021/08/01 03:50:48;;;;;;;8.88;6.50;;;;;;;20.99;100.00;99531.97;5053574;28;20489;-77
2021/08/01 03:53:16;;;;;;;12.27;6.60;;;;;;;21.06;100.00;99526.69;5055425;28;20479;-77
2021/08/01 03:55:45;;;;;;;10.05;6.90;;;;;;;21.24;100.00;99519.16;5054756;28;20407;-77
2021/08/01 03:58:13;;;;;;;9.90;6.68;;;;;;;21.14;100.00;99527.50;5054889;28;20483;-77
2021/08/01 04:00:46;;;;;;;9.52;6.80;;;;;;;21.02;100.00;99531.59;5054522;28;20052;-77
2021/08/01 04:03:15;;;;;;;10.10;6.55;;;;;;;20.99;100.00;99526.56;5055147;28;20075;-76
2021/08/01 04:05:45;;;;;;;10.20;7.05;;;;;;;21.04;100.00;99523.31;5054615;28;20091;-77
2021/08/01 04:08:13;;;;;;;7.95;6.15;;;;;;;20.98;100.00;99502.34;5054520;28;20045;-75
2021/08/01 04:10:41;;;;;;;9.05;6.15;;;;;;;20.94;95.19;99534.38;5054462;28;20072;-77
2021/08/01 04:13:09;;;;;;;8.20;6.05;;;;;;;20.99;100.00;99574.50;5054734;28;20041;-76
2021/08/01 04:15:38;;;;;;;9.73;6.85;;;;;;;20.93;100.00;99589.59;5054574;28;20052;-77
2021/08/01 04:18:06;;;;;;;9.65;6.88;;;;;;;20.80;100.00;99589.31;5054748;28;20068;-74
2021/08/01 04:20:35;;;;;;;18.23;9.43;;;;;;;20.63;100.00;99623.72;5054560;28;20071;-74
2021/08/01 04:23:04;;;;;;;13.65;9.20;;;;;;;20.49;100.00;99609.03;5054179;28;20098;-80
2021/08/01 04:25:32;;;;;;;16.20;10.15;;;;;;;20.33;100.00;99546.69;5054184;28;20510;-75
2021/08/01 04:28:03;;;;;;;12.60;7.75;;;;;;;20.43;100.00;99519.47;5053970;28;20120;-75
2021/08/01 04:30:34;;;;;;;13.27;8.35;;;;;;;20.37;100.00;99536.41;5054530;28;20037;-75
2021/08/01 04:33:02;;;;;;;12.90;8.13;;;;;;;20.42;100.00;99528.56;5054031;28;20049;-75
2021/08/01 04:35:31;;;;;;;10.73;7.85;;;;;;;20.40;100.00;99507.09;5054252;28;20037;-75
2021/08/01 04:38:01;;;;;;;11.85;7.40;;;;;;;20.45;100.00;99472.22;5053813;28;20056;-75
2021/08/01 04:40:31;;;;;;;11.65;6.43;;;;;;;20.60;100.00;99457.97;5054145;28;20472;-74
2021/08/01 04:42:59;;;;;;;10.75;6.57;;;;;;;20.69;100.00;99422.53;5053723;28;20037;-75
2021/08/01 04:45:27;;;;;;;8.73;6.00;;;;;;;20.92;100.00;99411.72;5054133;28;20056;-75
2021/08/01 04:47:55;;;;;;;8.27;5.65;;;;;;;21.02;100.00;99419.59;5053641;28;20045;-75
2021/08/01 04:50:24;;;;;;;7.82;5.20;;;;;;;21.28;97.21;99427.44;5053709;28;20045;-74
2021/08/01 04:52:52;;;;;;;6.97;4.50;;;;;;;21.55;94.31;99417.91;5053732;28;20522;-73
2021/08/01 04:55:21;;;;;;;9.57;5.47;;;;;;;21.58;95.50;99402.09;5053601;28;20041;-74
2021/08/01 04:57:51;;;;;;;9.18;5.20;;;;;;;21.57;95.58;99402.28;5053497;28;20044;-74
2021/08/01 05:00:20;;;;;;;7.38;5.10;;;;;;;21.54;96.68;99444.19;5053812;28;20051;-74
2021/08/01 05:02:48;;;;;;;8.90;4.95;;;;;;;21.59;97.20;99479.75;5053361;28;20124;-75
2021/08/01 05:05:17;;;;;;;6.97;5.45;;;;;;;21.67;100.00;99481.56;5053757;28;20479;-74
2021/08/01 05:07:45;;;;;;;9.13;5.65;;;;;;;21.42;100.00;99489.03;5053081;28;20041;-76
2021/08/01 05:10:13;;;;;;;10.23;6.30;;;;;;;21.29;100.00;99488.78;5053456;28;20040;-75
2021/08/01 05:12:41;;;;;;;10.85;7.00;;;;;;;20.97;100.00;99489.81;5053494;28;20357;-75
2021/08/01 05:15:12;;;;;;;9.45;6.45;;;;;;;21.01;100.00;99489.25;5053373;28;20403;-75
2021/08/01 05:17:40;;;;;;;9.48;7.00;;;;;;;21.07;100.00;99496.69;5053649;28;20045;-75
2021/08/01 05:20:09;;;;;;;10.15;6.78;;;;;;;21.26;100.00;99483.69;5053022;28;20049;-75
2021/08/01 05:22:38;;;;;;;10.43;6.90;;;;;;;21.45;100.00;99460.72;5053767;28;20041;-74
2021/08/01 05:25:08;;;;;;;9.07;6.68;;;;;;;22.05;99.33;99457.97;5052880;28;20136;-76
2021/08/01 05:27:36;;;;;;;9.32;6.88;;;;;;;21.45;100.00;99449.88;5053638;28;20068;-75
2021/08/01 05:30:05;;;;;;;10.95;6.47;;;;;;;21.47;100.00;99443.22;5052887;28;20063;-74
2021/08/01 05:32:38;;;;;;;9.18;6.78;;;;;;;21.58;100.00;99444.66;5053295;28;20047;-74
2021/08/01 05:35:10;;;;;;;9.80;7.20;;;;;;;21.45;100.00;99450.72;5053151;28;20044;-73
2021/08/01 05:37:39;;;;;;;10.38;6.75;;;;;;;21.66;100.00;99450.88;5052996;28;20049;-76
2021/08/01 05:40:10;;;;;;;9.30;6.45;;;;;;;21.49;100.00;99446.59;5052670;28;20049;-78
2021/08/01 05:42:39;;;;;;;10.35;6.70;;;;;;;22.47;96.10;99435.63;5053329;28;20048;-78
2021/08/01 05:45:08;;;;;;;9.82;6.50;;;;;;;24.13;88.97;99430.03;5052788;28;20049;-77
2021/08/01 05:47:39;;;;;;;8.15;5.85;;;;;;;25.10;82.24;99427.19;5053113;28;20090;-76
2021/08/01 05:50:10;;;;;;;10.45;5.80;;;;;;;25.67;78.01;99420.34;5052530;28;20135;-76
2021/08/01 05:52:38;;;;;;;8.50;5.68;;;;;;;25.65;76.03;99430.63;5053160;28;20044;-76
2021/08/01 05:55:07;;;;;;;7.47;5.82;;;;;;;25.08;79.30;99432.00;5052511;28;20120;-76
2021/08/01 05:57:35;;;;;;;8.35;5.43;;;;;;;24.29;83.41;99442.50;5052882;28;20075;-75
2021/08/01 06:00:05;;;;;;;8.13;5.28;;;;;;;24.03;85.08;99436.84;5052325;28;20045;-75
2021/08/01 06:02:33;;;;;;;9.07;5.70;;;;;;;24.09;83.89;99426.03;5052754;28;20123;-75
2021/08/01 06:05:04;;;;;;;9.20;5.70;;;;;;;24.57;84.20;99419.81;5052301;28;20106;-78
2021/08/01 06:07:32;;;;;;;11.25;5.70;;;;;;;25.23;80.93;99414.63;5052926;28;20037;-80
2021/08/01 06:10:00;;;;;;;8.95;5.43;;;;;;;25.32;80.56;99416.09;5052518;28;20048;-82
2021/08/01 06:12:29;;;;;;;7.15;5.50;;;;;;;25.17;80.68;99416.28;5052717;28;20041;-76
2021/08/01 06:14:59;;;;;;;8.18;5.75;;;;;;;24.93;83.49;99427.75;5052550;28;20045;-77
2021/08/01 06:17:27;;;;;;;8.18;5.25;;;;;;;25.79;78.10;99436.13;5052643;28;20052;-77
2021/08/01 06:19:56;;;;;;;8.48;5.63;;;;;;;24.81;80.67;99424.78;5052466;28;20051;-77
2021/08/01 06:22:26;;;;;;;7.65;5.40;;;;;;;24.09;85.14;99420.56;5052743;28;20045;-77
2021/08/01 06:24:57;;;;;;;9.10;5.28;;;;;;;23.97;86.82;99423.00;5052165;28;20045;-77
2021/08/01 06:27:25;;;;;;;8.00;5.25;;;;;;;24.21;85.44;99418.13;5052369;28;20492;-77
2021/08/01 06:29:53;;;;;;;9.05;4.80;;;;;;;24.67;84.68;99402.03;5052117;28;20041;-79
2021/08/01 06:32:25;;;;;;;8.02;5.10;;;;;;;24.90;82.25;99396.25;5053013;28;20041;-78
2021/08/01 06:34:54;;;;;;;7.50;5.25;;;;;;;25.96;79.18;99390.91;5055982;28;20045;-76
2021/08/01 06:37:22;;;;;;;8.13;5.22;;;;;;;26.01;77.32;99385.66;5056479;28;20071;-78
2021/08/01 06:39:51;;;;;;;9.60;5.85;;;;;;;26.36;75.08;99385.38;5055935;28;20128;-75
2021/08/01 06:42:20;;;;;;;9.85;4.95;;;;;;;26.02;77.96;99376.41;5056293;28;20041;-79
2021/08/01 06:44:48;;;;;;;8.27;5.55;;;;;;;25.68;79.45;99366.56;5056381;28;20048;-80
2021/08/01 06:47:17;;;;;;;12.07;6.15;;;;;;;25.23;79.89;99377.25;5056304;28;20055;-75
2021/08/01 06:49:45;;;;;;;8.10;5.95;;;;;;;24.99;81.78;99378.63;5056171;28;20049;-74
2021/08/01 06:52:34;;;;;;;9.27;5.85;;;;;;;24.84;83.21;99380.72;5056488;28;20071;-77
2021/08/01 06:55:05;;;;;;;8.90;6.32;;;;;;;24.65;84.88;99376.03;5054748;28;20047;-76
2021/08/01 06:57:34;;;;;;;10.30;7.35;;;;;;;24.30;86.37;99370.59;5056025;28;20072;-75
2021/08/01 07:00:03;;;;;;;11.30;8.77;;;;;;;24.15;86.43;99353.56;5055678;28;20077;-88
2021/08/01 07:02:32;;;;;;;13.63;9.65;;;;;;;23.81;90.12;99347.06;5055969;28;20049;-78
2021/08/01 07:05:01;;;;;;;11.05;9.25;;;;;;;23.89;89.79;99348.78;5055566;28;20072;-78
2021/08/01 07:07:29;;;;;;;11.88;9.35;;;;;;;23.76;89.83;99355.00;5055801;28;20058;-80
2021/08/01 07:09:57;;;;;;;13.48;9.98;;;;;;;23.85;90.49;99369.31;5055401;28;20049;-76
2021/08/01 07:12:27;;;;;;;13.60;10.18;;;;;;;23.84;89.65;99371.19;5053355;28;20059;-83
2021/08/01 07:14:55;;;;;;;11.88;9.77;;;;;;;23.83;90.73;99384.97;5054233;28;20075;-76
2021/08/01 07:17:23;;;;;;;13.07;10.50;;;;;;;23.93;90.69;99383.59;5056081;28;20037;-80
2021/08/01 07:19:51;;;;;;;12.23;9.68;;;;;;;24.05;90.11;99407.56;5055732;28;20077;-78
2021/08/01 07:22:19;;;;;;;12.93;9.63;;;;;;;23.86;90.35;99403.66;5055653;28;20094;-81
2021/08/01 07:24:48;;;;;;;11.60;10.40;;;;;;;23.76;93.83;99390.38;5055276;28;20076;-74
2021/08/01 07:27:18;;;;;;;12.77;10.43;;;;;;;23.53;94.05;99433.28;5055415;28;20053;-70
2021/08/01 07:29:48;;;;;;;14.52;11.13;;;;;;;23.39;96.66;99484.88;5057562;28;20049;-72
2021/08/01 07:32:16;;;;;;;13.88;10.80;;;;;;;23.21;98.79;99535.31;5057583;28;20048;-72
2021/08/01 07:34:45;;;;;;;13.25;10.32;;;;;;;23.02;99.48;99561.22;5055418;28;20044;-70
2021/08/01 07:37:13;;;;;;;13.82;10.80;;;;;;;23.01;99.65;99584.88;5054833;28;20080;-70
2021/08/01 07:39:43;;;;;;;17.98;12.25;;;;;;;22.96;100.00;99621.78;5055211;28;20045;-74
2021/08/01 07:42:12;;;;;;;17.98;12.50;;;;;;;22.71;100.00;99611.16;5054947;28;20055;-71
2021/08/01 07:44:51;;;;;;;14.07;10.07;;;;;;;22.78;100.00;99535.16;5054671;28;20047;-74
2021/08/01 07:47:22;;;;;;;15.98;11.48;;;;;;;22.84;100.00;99459.13;5054791;28;20049;-75
2021/08/01 07:49:52;;;;;;;16.97;13.23;;;;;;;22.80;100.00;99402.59;5054786;28;20049;-74
2021/08/01 07:52:21;;;;;;;16.85;13.55;;;;;;;22.51;100.00;99358.13;5054798;28;20277;-74
2021/08/01 07:54:50;;;;;;;20.23;14.45;;;;;;;22.18;100.00;99338.69;5054875;28;20110;-73
2021/08/01 07:57:26;;;;;;;18.95;16.13;;;;;;;22.19;100.00;99340.38;5054506;28;20056;-74
2021/08/01 07:59:54;;;;;;;19.70;16.42;;;;;;;22.34;100.00;99348.50;5054741;28;20470;-75
2021/08/01 08:02:24;;;;;;;18.48;15.80;;;;;;;22.55;100.00;99373.00;5054389;28;20048;-72
2021/08/01 08:04:53;;;;;;;19.55;15.82;;;;;;;22.68;100.00;99404.97;5054919;28;20044;-71
2021/08/01 08:07:22;;;;;;;18.02;13.02;;;;;;;22.91;100.00;99412.16;5054313;28;20580;-71
2021/08/01 08:09:50;;;;;;;16.58;12.80;;;;;;;23.29;100.00;99421.78;5054573;28;20119;-71
2021/08/01 08:12:21;;;;;;;15.68;13.65;;;;;;;23.32;100.00;99424.09;5054354;28;20399;-72
2021/08/01 08:14:49;;;;;;;15.88;12.82;;;;;;;23.50;100.00;99430.97;5054526;28;20037;-70
2021/08/01 08:17:18;;;;;;;18.15;14.30;;;;;;;23.57;100.00;99437.31;5054258;28;20064;-70
2021/08/01 08:19:48;;;;;;;17.77;13.85;;;;;;;23.68;100.00;99429.50;5054333;28;20095;-71
2021/08/01 08:22:16;;;;;;;14.27;11.93;;;;;;;23.86;99.42;99426.28;5054073;28;20458;-71
2021/08/01 08:24:45;;;;;;;14.40;11.63;;;;;;;23.99;98.18;99401.84;5053869;28;20090;-70
2021/08/01 08:27:13;;;;;;;15.73;11.90;;;;;;;24.01;99.23;99387.19;5053564;28;20047;-70
2021/08/01 08:29:41;;;;;;;14.05;11.77;;;;;;;24.13;98.41;99375.56;5054237;28;20037;-75
2021/08/01 08:32:10;;;;;;;16.20;11.77;;;;;;;24.01;96.23;99384.47;5053933;28;20403;-76
2021/08/01 08:34:40;;;;;;;13.18;11.13;;;;;;;23.90;97.23;99386.72;5054494;28;20049;-77
2021/08/01 08:37:10;;;;;;;13.52;12.02;;;;;;;23.64;98.49;99383.78;5053594;28;20068;-76
2021/08/01 08:39:38;;;;;;;13.98;11.40;;;;;;;23.56;97.30;99386.63;5053866;28;20590;-74
2021/08/01 08:42:07;;;;;;;13.32;11.93;;;;;;;23.69;97.93;99348.66;5053528;28;20048;-72
2021/08/01 08:44:37;;;;;;;17.23;12.68;;;;;;;23.90;98.59;99324.06;5053773;28;20060;-69
2021/08/01 08:47:08;;;;;;;15.77;12.73;;;;;;;24.16;98.17;99307.03;5053736;28;20051;-75
2021/08/01 08:49:37;;;;;;;15.68;12.32;;;;;;;24.48;97.15;99308.22;5053705;28;20087;-73
2021/08/01 08:52:07;;;;;;;17.48;14.35;;;;;;;24.49;98.95;99300.91;5053594;28;20072;-73
2021/08/01 08:54:46;;;;;;;15.75;13.45;;;;;;;24.45;96.77;99289.56;5053624;28;20072;-73
2021/08/01 08:57:21;;;;;;;17.02;12.60;;;;;;;24.51;99.39;99277.88;5053319;28;20049;-74
2021/08/01 08:59:55;;;;;;;15.25;12.85;;;;;;;24.41;99.54;99279.28;5053918;28;20067;-75
2021/08/01 09:02:24;;;;;;;15.35;12.75;;;;;;;24.45;97.99;99275.94;5052189;28;20060;-76
2021/08/01 09:04:52;;;;;;;14.25;11.43;;;;;;;24.19;98.38;99249.41;5053324;28;20076;-74
2021/08/01 09:07:20;;;;;;;15.90;11.50;;;;;;;24.46;96.32;99250.38;5053523;28;20048;-76
2021/08/01 09:09:50;;;;;;;14.32;10.65;;;;;;;24.50;94.63;99251.63;5053337;28;20051;-75
2021/08/01 09:12:18;;;;;;;13.98;10.80;;;;;;;24.70;96.15;99246.19;5053272;28;20049;-75
2021/08/01 09:14:47;;;;;;;10.90;9.25;;;;;;;24.62;93.63;99253.75;5053504;28;20041;-74
2021/08/01 09:17:35;;;;;;;10.73;8.60;;;;;;;24.75;91.36;99245.59;5053472;28;20051;-74
2021/08/01 09:20:14;;;;;;;10.63;8.47;;;;;;;24.81;91.53;99228.41;5052472;28;20079;-74
2021/08/01 09:22:43;;;;;;;13.57;8.75;;;;;;;24.97;89.63;99238.06;5053467;28;20041;-73
2021/08/01 09:25:20;;;;;;;10.18;8.20;;;;;;;25.03;86.35;99232.63;5052714;28;20080;-74
2021/08/01 09:27:48;;;;;;;10.85;8.18;;;;;;;25.08;89.41;99224.63;5053064;28;20045;-74
2021/08/01 09:30:17;;;;;;;9.70;7.85;;;;;;;25.18;86.91;99226.09;5052834;28;20041;-73
2021/08/01 09:32:47;;;;;;;9.20;7.20;;;;;;;25.34;85.39;99225.69;5053399;28;20041;-73
2021/08/01 09:35:19;;;;;;;12.60;8.32;;;;;;;25.51;85.04;99224.19;5052874;28;20041;-73
2021/08/01 09:37:55;;;;;;;10.23;7.53;;;;;;;25.66;83.83;99229.38;5052909;28;20041;-73
2021/08/01 09:40:29;;;;;;;10.15;7.93;;;;;;;25.73;83.45;99221.22;5052533;28;20538;-74
2021/08/01 09:43:07;;;;;;;9.43;7.68;;;;;;;25.85;83.10;99225.78;5052696;28;20064;-74
2021/08/01 09:45:35;;;;;;;8.52;7.60;;;;;;;25.80;83.13;99216.56;5052924;28;20052;-74
2021/08/01 09:48:18;;;;;;;8.88;7.03;;;;;;;25.94;82.71;99224.47;5053006;28;20488;-73
2021/08/01 09:51:02;;;;;;;9.30;7.45;;;;;;;26.05;80.57;99220.22;5052876;28;20501;-74
2021/08/01 09:53:31;;;;;;;10.23;7.03;;;;;;;26.09;79.90;99220.66;5051599;28;20049;-74
2021/08/01 09:56:18;;;;;;;8.65;7.07;;;;;;;26.24;81.13;99224.75;5052842;28;20483;-74
2021/08/01 09:58:47;;;;;;;8.90;7.53;;;;;;;26.34;79.47;99228.91;5052926;28;20045;-74
2021/08/01 10:01:16;;;;;;;10.48;7.60;;;;;;;26.49;78.00;99237.69;5052460;28;20055;-74
2021/08/01 10:03:47;;;;;;;9.48;7.15;;;;;;;26.65;78.24;99236.34;5052954;28;20415;-74
2021/08/01 10:06:17;;;;;;;9.80;7.20;;;;;;;26.80;78.18;99234.13;5052267;28;20041;-74
2021/08/01 10:08:47;;;;;;;9.02;6.97;;;;;;;26.88;76.09;99235.75;5052778;28;20478;-74
2021/08/01 10:11:21;;;;;;;10.85;7.13;;;;;;;26.98;76.87;99247.03;5052384;28;20048;-74
2021/08/01 10:13:52;;;;;;;10.02;7.05;;;;;;;27.08;76.57;99236.47;5051668;28;20071;-74
2021/08/01 10:16:21;;;;;;;9.15;7.32;;;;;;;27.15;75.23;99234.50;5051990;28;20053;-72
2021/08/01 10:18:50;;;;;;;7.90;6.80;;;;;;;27.24;75.50;99229.59;5052514;28;20045;-71
2021/08/01 10:21:21;;;;;;;10.70;7.13;;;;;;;27.47;76.17;99212.50;5052106;28;20045;-81
2021/08/01 10:23:57;;;;;;;10.85;6.75;;;;;;;27.55;74.10;99202.09;5052673;28;20045;-84
2021/08/01 10:26:32;;;;;;;10.88;7.28;;;;;;;27.60;73.46;99193.19;5052231;28;20450;-84
2021/08/01 10:29:04;;;;;;;9.98;6.93;;;;;;;27.76;74.51;99181.66;5051697;28;20053;-78
2021/08/01 10:31:36;;;;;;;9.00;6.77;;;;;;;27.78;69.93;99176.78;5052434;28;20072;-83
2021/08/01 10:34:10;;;;;;;9.48;7.35;;;;;;;27.92;72.10;99170.06;5053122;28;20052;-81
2021/08/01 10:36:40;;;;;;;10.77;7.45;;;;;;;28.05;71.28;99166.31;5052388;28;20055;-83
2021/08/01 10:39:13;;;;;;;10.70;7.30;;;;;;;27.99;70.85;99160.91;5052834;28;20392;-78
2021/08/01 10:41:44;;;;;;;8.70;7.47;;;;;;;27.98;72.39;99151.84;5052297;28;20047;-80
2021/08/01 10:44:14;;;;;;;11.75;7.35;;;;;;;28.09;71.62;99153.84;5052494;28;20493;-73
2021/08/01 10:46:43;;;;;;;10.13;7.75;;;;;;;28.24;72.09;99158.88;5051746;28;20128;-72
2021/08/01 10:49:13;;;;;;;8.75;7.00;;;;;;;28.39;69.76;99144.78;5052118;28;20089;-71
2021/08/01 10:51:41;;;;;;;11.05;7.00;;;;;;;28.50;68.51;99130.25;5047474;28;20455;-72
2021/08/01 10:54:31;;;;;;;12.35;7.43;;;;;;;28.56;68.64;99122.97;5050989;28;20060;-72
2021/08/01 10:57:15;;;;;;;10.30;6.82;;;;;;;28.58;65.47;99118.94;5052095;28;20045;-71
2021/08/01 11:00:09;;;;;;;9.98;6.70;;;;;;;28.67;66.15;99114.78;5052234;28;20099;-69
2021/08/01 11:02:38;;;;;;;8.63;6.93;;;;;;;28.59;65.54;99123.34;5052216;28;20132;-70
2021/08/01 11:05:39;;;;;;;9.45;6.80;;;;;;;28.57;65.12;99121.91;5051930;28;20555;-70
2021/08/01 11:08:09;;;;;;;9.15;6.97;;;;;;;28.58;65.73;99104.41;5052090;28;20045;-69
2021/08/01 11:10:39;;;;;;;10.80;7.10;;;;;;;28.54;65.88;99101.25;5051767;28;20064;-70
2021/08/01 11:13:39;;;;;;;12.23;7.70;;;;;;;28.74;64.70;99098.19;5051999;28;20044;-70
2021/08/01 11:16:09;;;;;;;9.43;6.72;;;;;;;28.91;62.55;99096.44;5045306;28;20061;-71
2021/08/01 11:18:39;;;;;;;8.18;6.35;;;;;;;28.92;61.52;99120.06;5053464;28;20111;-71
2021/08/01 11:21:10;;;;;;;9.05;6.72;;;;;;;28.95;62.84;99126.97;5055136;28;20072;-73
2021/08/01 11:24:10;;;;;;;8.85;6.63;;;;;;;28.98;62.34;99130.09;5055351;28;20083;-71
2021/08/01 11:27:12;;;;;;;11.32;7.00;;;;;;;29.09;61.32;99122.94;5055376;28;20499;-73
2021/08/01 11:30:14;;;;;;;7.55;6.70;;;;;;;29.33;60.82;99118.22;5055562;28;20056;-73
2021/08/01 11:32:52;;;;;;;9.27;7.03;;;;;;;29.35;60.71;99113.34;4993812;28;20050;-74
2021/08/01 11:35:22;;;;;;;8.52;6.45;;;;;;;29.32;60.92;99116.56;4993765;28;20049;-70
2021/08/01 11:38:08;;;;;;;9.70;6.63;;;;;;;29.57;60.43;99117.16;5029188;28;20067;-70
2021/08/01 11:40:46;;;;;;;9.25;7.10;;;;;;;29.76;59.78;99123.31;5055420;28;20045;-73
2021/08/01 11:43:15;;;;;;;9.82;6.82;;;;;;;29.89;59.30;99119.44;5054987;28;20037;-71